Dades meteomassalio
Diari Summary for Febrer 19, 2017 Units:  Metric    English   Both
« Previous Day
Next Day »
Diari Semanal Mensual Anual Personalitzat
  Maxima: Minima: Mijana:
Temperatura: 12.0 °C 0.6 °C 5.2 °C
Rosada: 8.4 °C -0.2 °C 3.8 °C
Humitat: 94 % 75 % 91 %
Velocitat del vent: 9.3 km/h 0.0 km/h 0.3 km/h
Racha vent: 9.3 km/h - -
Vent:- - SW
Pressio: 1030.0 hPa 1023.6 hPa -
Pluja: 0.3 mm    
Historical Graphs
 
 
Tabular Data for Febrer 19, 2017
Time Temperature Dew Point Pressure Wind Wind Speed Wind Gust Humidity Rainfall Rate (Hourly) solar Conditions
00:00 3.1 °C 2.1 °C 1023.6 hPa Calm     93 % 0.0 mm 0.0 W/m2 CLR
00:05 2.9 °C 1.9 °C 1023.6 hPa Calm     93 % 0.0 mm 0.0 W/m2 CLR
00:10 2.8 °C 1.8 °C 1023.6 hPa Calm     93 % 0.0 mm 0.0 W/m2 CLR
00:15 2.7 °C 1.7 °C 1023.9 hPa Calm     93 % 0.0 mm 0.0 W/m2 CLR
00:20 2.7 °C 1.7 °C 1023.9 hPa Calm     93 % 0.0 mm 0.0 W/m2 CLR
00:25 2.6 °C 1.6 °C 1023.9 hPa Calm     93 % 0.0 mm 0.0 W/m2 CLR
00:30 2.4 °C 1.4 °C 1023.9 hPa Calm     93 % 0.0 mm 0.0 W/m2 CLR
00:35 2.3 °C 1.3 °C 1023.9 hPa Calm     93 % 0.0 mm 0.0 W/m2 CLR
00:41 2.2 °C 1.2 °C 1023.9 hPa Calm     93 % 0.0 mm 0.0 W/m2 CLR
00:46 2.2 °C 1.2 °C 1023.9 hPa Calm     93 % 0.0 mm 0.0 W/m2 CLR
00:51 2.2 °C 1.2 °C 1024.3 hPa Calm     93 % 0.0 mm 0.0 W/m2 CLR
00:56 2.1 °C 1.1 °C 1023.9 hPa Calm     93 % 0.0 mm 0.0 W/m2 CLR
01:01 1.9 °C 0.9 °C 1023.9 hPa Calm     93 % 0.0 mm 0.0 W/m2 CLR
01:06 1.9 °C 1.0 °C 1024.3 hPa Calm     94 % 0.0 mm 0.0 W/m2 CLR
01:11 1.8 °C 0.8 °C 1024.3 hPa Calm     93 % 0.0 mm 0.0 W/m2 CLR
01:16 1.7 °C 0.8 °C 1024.3 hPa Calm     94 % 0.0 mm 0.0 W/m2 CLR
01:21 1.6 °C 0.7 °C 1024.3 hPa Calm     94 % 0.0 mm 0.0 W/m2 CLR
01:26 1.6 °C 0.6 °C 1024.3 hPa Calm     93 % 0.0 mm 0.0 W/m2 CLR
01:31 1.5 °C 0.5 °C 1024.3 hPa Calm     93 % 0.0 mm 0.0 W/m2 CLR
01:36 1.4 °C 0.4 °C 1024.3 hPa Calm     93 % 0.0 mm 0.0 W/m2 CLR
01:41 1.4 °C 0.6 °C 1024.3 hPa Calm     94 % 0.0 mm 0.0 W/m2 CLR
01:46 1.4 °C 0.6 °C 1024.3 hPa Calm     94 % 0.0 mm 0.0 W/m2 CLR
01:52 1.3 °C 0.5 °C 1024.3 hPa Calm     94 % 0.0 mm 0.0 W/m2 CLR
01:57 1.3 °C 0.4 °C 1024.3 hPa Calm     94 % 0.0 mm 0.0 W/m2 CLR
02:02 1.3 °C 0.4 °C 1024.3 hPa Calm     94 % 0.0 mm 0.0 W/m2 CLR
02:07 1.3 °C 0.4 °C 1024.3 hPa Calm     94 % 0.0 mm 0.0 W/m2 CLR
02:12 1.2 °C 0.3 °C 1024.6 hPa Calm     94 % 0.0 mm 0.0 W/m2 CLR
02:17 1.1 °C 0.3 °C 1024.6 hPa Calm     94 % 0.0 mm 0.0 W/m2 CLR
02:22 1.1 °C 0.3 °C 1024.6 hPa Calm     94 % 0.0 mm 0.0 W/m2 CLR
02:27 1.1 °C 0.2 °C 1024.9 hPa Calm     94 % 0.0 mm 0.0 W/m2 CLR
02:32 1.1 °C 0.2 °C 1024.9 hPa Calm     94 % 0.0 mm 0.0 W/m2 CLR
02:37 1.1 °C 0.2 °C 1024.9 hPa Calm     94 % 0.0 mm 0.0 W/m2 CLR
02:42 1.0 °C 0.2 °C 1024.9 hPa Calm     94 % 0.0 mm 0.0 W/m2 CLR
02:47 1.0 °C 0.2 °C 1024.9 hPa Calm     94 % 0.0 mm 0.0 W/m2 CLR
02:52 1.1 °C 0.2 °C 1025.3 hPa Calm     94 % 0.0 mm 0.0 W/m2 CLR
02:57 1.2 °C 0.3 °C 1025.3 hPa Calm     94 % 0.0 mm 0.0 W/m2 CLR
03:02 1.2 °C 0.3 °C 1025.3 hPa Calm     94 % 0.0 mm 0.0 W/m2 CLR
03:08 1.1 °C 0.3 °C 1025.3 hPa Calm     94 % 0.0 mm 0.0 W/m2 CLR
03:13 1.0 °C 0.2 °C 1025.3 hPa Calm     94 % 0.0 mm 0.0 W/m2 CLR
03:18 0.9 °C 0.1 °C 1025.3 hPa Calm     94 % 0.0 mm 0.0 W/m2 CLR
03:23 0.9 °C 0.1 °C 1025.3 hPa Calm     94 % 0.0 mm 0.0 W/m2 CLR
03:28 0.9 °C 0.1 °C 1025.6 hPa Calm     94 % 0.0 mm 0.0 W/m2 CLR
03:33 0.9 °C 0.1 °C 1025.6 hPa Calm     94 % 0.0 mm 0.0 W/m2 CLR
03:38 0.8 °C 0.0 °C 1025.6 hPa Calm     94 % 0.0 mm 0.0 W/m2 CLR
03:43 0.8 °C 0.0 °C 1025.6 hPa Calm     94 % 0.0 mm 0.0 W/m2 CLR
03:48 0.8 °C 0.0 °C 1025.6 hPa Calm     94 % 0.0 mm 0.0 W/m2 CLR
03:53 0.8 °C -0.1 °C 1025.6 hPa Calm     94 % 0.0 mm 0.0 W/m2 CLR
03:58 0.7 °C -0.1 °C 1025.6 hPa Calm     94 % 0.0 mm 0.0 W/m2 CLR
04:03 0.7 °C -0.1 °C 1025.6 hPa Calm     94 % 0.0 mm 0.0 W/m2 CLR
04:08 0.7 °C -0.2 °C 1025.6 hPa Calm     94 % 0.0 mm 0.0 W/m2 CLR
04:13 0.6 °C -0.2 °C 1025.6 hPa Calm     94 % 0.0 mm 0.0 W/m2 CLR
04:18 0.7 °C -0.2 °C 1025.6 hPa Calm     94 % 0.0 mm 0.0 W/m2 CLR
04:23 0.7 °C -0.2 °C 1025.6 hPa Calm     94 % 0.0 mm 0.0 W/m2 CLR
04:28 0.7 °C -0.2 °C 1025.6 hPa Calm     94 % 0.0 mm 0.0 W/m2 CLR
04:33 0.7 °C -0.1 °C 1025.6 hPa Calm     94 % 0.0 mm 0.0 W/m2 CLR
04:39 0.8 °C -0.1 °C 1026.0 hPa Calm     94 % 0.0 mm 0.0 W/m2 CLR
04:44 0.9 °C 0.1 °C 1026.0 hPa Calm     94 % 0.0 mm 0.0 W/m2 CLR
04:49 0.9 °C 0.1 °C 1026.0 hPa Calm     94 % 0.0 mm 0.0 W/m2 CLR
04:54 0.9 °C 0.1 °C 1026.0 hPa Calm     94 % 0.0 mm 0.0 W/m2 CLR
04:59 0.9 °C 0.1 °C 1026.0 hPa Calm     94 % 0.0 mm 0.0 W/m2 CLR
05:04 1.1 °C 0.2 °C 1026.0 hPa Calm     94 % 0.0 mm 0.0 W/m2 CLR
05:09 1.2 °C 0.3 °C 1026.3 hPa Calm     94 % 0.0 mm 0.0 W/m2 CLR
05:14 1.2 °C 0.4 °C 1026.3 hPa Calm     94 % 0.0 mm 0.0 W/m2 CLR
05:19 1.2 °C 0.4 °C 1026.3 hPa Calm     94 % 0.0 mm 0.0 W/m2 CLR
05:24 1.2 °C 0.4 °C 1026.3 hPa Calm     94 % 0.0 mm 0.0 W/m2 CLR
05:29 1.3 °C 0.4 °C 1026.3 hPa Calm     94 % 0.0 mm 0.0 W/m2 CLR
05:34 1.3 °C 0.4 °C 1026.3 hPa Calm     94 % 0.0 mm 0.0 W/m2 CLR
05:39 1.3 °C 0.5 °C 1026.3 hPa Calm     94 % 0.0 mm 0.0 W/m2 CLR
05:45 1.4 °C 0.6 °C 1026.3 hPa Calm     94 % 0.0 mm 0.0 W/m2 CLR
05:50 1.6 °C 0.7 °C 1026.3 hPa Calm     94 % 0.0 mm 0.0 W/m2 CLR
05:55 1.6 °C 0.7 °C 1026.6 hPa Calm     94 % 0.0 mm 0.0 W/m2 CLR
06:00 1.6 °C 0.7 °C 1026.6 hPa Calm     94 % 0.0 mm 0.0 W/m2 CLR
06:05 1.7 °C 0.8 °C 1026.6 hPa Calm     94 % 0.0 mm 0.0 W/m2 CLR
06:10 1.7 °C 0.8 °C 1027.0 hPa Calm     94 % 0.0 mm 0.0 W/m2 CLR
06:15 1.6 °C 0.7 °C 1027.0 hPa Calm     94 % 0.0 mm 0.0 W/m2 CLR
06:20 1.6 °C 0.7 °C 1027.0 hPa Calm     94 % 0.0 mm 0.0 W/m2 CLR
06:25 1.6 °C 0.7 °C 1027.0 hPa Calm     94 % 0.0 mm 0.0 W/m2 CLR
06:30 1.7 °C 0.8 °C 1027.0 hPa Calm     94 % 0.0 mm 0.0 W/m2 CLR
06:35 1.8 °C 0.9 °C 1027.3 hPa Calm     94 % 0.0 mm 0.0 W/m2 CLR
06:40 1.8 °C 0.9 °C 1027.0 hPa Calm     94 % 0.0 mm 0.0 W/m2 CLR
06:45 1.9 °C 1.1 °C 1027.3 hPa Calm     94 % 0.0 mm 0.0 W/m2 CLR
06:50 2.1 °C 1.2 °C 1027.3 hPa Calm     94 % 0.0 mm 0.0 W/m2 CLR
06:55 2.1 °C 1.2 °C 1027.3 hPa Calm     94 % 0.0 mm 0.0 W/m2 CLR
07:00 2.1 °C 1.2 °C 1027.3 hPa Calm     94 % 0.0 mm 0.0 W/m2 CLR
07:05 2.2 °C 1.3 °C 1027.3 hPa Calm     94 % 0.0 mm 0.0 W/m2 CLR
07:10 2.2 °C 1.3 °C 1027.7 hPa Calm     94 % 0.0 mm 0.0 W/m2 CLR
07:15 2.3 °C 1.4 °C 1027.7 hPa Calm     94 % 0.0 mm 0.0 W/m2 CLR
07:20 2.3 °C 1.4 °C 1027.7 hPa Calm     94 % 0.3 mm 0.0 W/m2 RA
07:25 2.4 °C 1.6 °C 1027.7 hPa Calm     94 % 0.3 mm 0.0 W/m2 CLR
07:30 2.5 °C 1.6 °C 1027.7 hPa Calm     94 % 0.3 mm 0.0 W/m2 CLR
07:35 2.5 °C 1.6 °C 1028.0 hPa Calm     94 % 0.3 mm 0.0 W/m2 CLR
07:40 2.6 °C 1.7 °C 1027.7 hPa Calm     94 % 0.3 mm 0.0 W/m2 OVC
07:45 2.7 °C 1.8 °C 1028.0 hPa Calm     94 % 0.3 mm 0.0 W/m2 OVC
07:50 2.8 °C 1.9 °C 1028.0 hPa Calm     94 % 0.3 mm 0.0 W/m2 OVC
07:55 2.8 °C 1.9 °C 1028.0 hPa Calm     94 % 0.3 mm 0.0 W/m2 OVC
08:00 2.8 °C 1.9 °C 1028.3 hPa Calm     94 % 0.3 mm 5.0 W/m2 OVC
08:05 2.9 °C 2.0 °C 1028.3 hPa Calm     94 % 0.3 mm 5.0 W/m2 OVC
08:10 3.0 °C 2.1 °C 1028.3 hPa Calm     94 % 0.3 mm 7.0 W/m2 BKN
08:15 3.1 °C 2.2 °C 1028.3 hPa Calm     94 % 0.3 mm 11.0 W/m2 BKN
08:20 3.1 °C 2.2 °C 1028.7 hPa Calm     94 % 0.0 mm 14.0 W/m2 BKN
08:25 3.2 °C 2.3 °C 1028.7 hPa Calm     94 % 0.0 mm 19.0 W/m2 BKN
08:30 3.2 °C 2.3 °C 1028.7 hPa Calm     94 % 0.0 mm 16.0 W/m2 BKN
08:35 3.4 °C 2.5 °C 1028.7 hPa Calm     94 % 0.0 mm 16.0 W/m2 BKN
08:40 3.6 °C 2.7 °C 1029.0 hPa Calm     94 % 0.0 mm 14.0 W/m2 BKN
08:45 3.8 °C 2.9 °C 1029.0 hPa Calm     94 % 0.0 mm 12.0 W/m2 BKN
08:50 4.0 °C 3.1 °C 1029.0 hPa Calm     94 % 0.0 mm 19.0 W/m2 BKN
08:55 4.1 °C 3.2 °C 1029.0 hPa Calm     94 % 0.0 mm 25.0 W/m2 BKN
09:00 4.3 °C 3.4 °C 1029.0 hPa Calm     94 % 0.0 mm 37.0 W/m2 BKN
09:05 4.4 °C 3.6 °C 1029.0 hPa WSW 5.6 km/h   94 % 0.0 mm 42.0 W/m2 BKN
09:10 4.6 °C 3.7 °C 1029.0 hPa Calm     94 % 0.0 mm 53.0 W/m2 SCT
09:15 4.8 °C 3.9 °C 1029.0 hPa Calm     94 % 0.0 mm 33.0 W/m2 SCT
09:20 4.9 °C 4.0 °C 1029.0 hPa Calm     94 % 0.0 mm 49.0 W/m2 BKN
09:25 5.0 °C 4.1 °C 1029.0 hPa Calm     94 % 0.0 mm 56.0 W/m2 SCT
09:30 5.1 °C 4.2 °C 1029.3 hPa Calm     94 % 0.0 mm 60.0 W/m2 SCT
09:35 5.2 °C 4.3 °C 1029.3 hPa Calm     94 % 0.0 mm 53.0 W/m2 SCT
09:40 5.3 °C 4.4 °C 1029.3 hPa Calm     94 % 0.0 mm 39.0 W/m2 SCT
09:45 5.2 °C 4.3 °C 1029.7 hPa Calm     94 % 0.0 mm 40.0 W/m2 BKN
09:50 5.2 °C 4.3 °C 1029.7 hPa Calm     94 % 0.0 mm 44.0 W/m2 BKN
09:55 5.3 °C 4.4 °C 1029.7 hPa Calm     94 % 0.0 mm 42.0 W/m2 BKN
10:00 5.4 °C 4.5 °C 1029.7 hPa NW 4.8 km/h 4.8 km/h 94 % 0.0 mm 54.0 W/m2 BKN
10:05 5.4 °C 4.6 °C 1029.7 hPa Calm     94 % 0.0 mm 62.0 W/m2 SCT
10:10 5.4 °C 4.6 °C 1029.7 hPa Calm     94 % 0.0 mm 70.0 W/m2 SCT
10:15 5.5 °C 4.6 °C 1029.7 hPa Calm     94 % 0.0 mm 83.0 W/m2 FEW
10:20 5.6 °C 4.7 °C 1029.7 hPa Calm     94 % 0.0 mm 105.0 W/m2 FEW
10:25 5.7 °C 4.8 °C 1029.7 hPa Calm     94 % 0.0 mm 121.0 W/m2 CLR
10:30 5.8 °C 4.9 °C 1029.7 hPa Calm     94 % 0.0 mm 114.0 W/m2 CLR
10:35 5.9 °C 5.0 °C 1029.7 hPa Calm     94 % 0.0 mm 158.0 W/m2 CLR
10:40 6.1 °C 5.2 °C 1029.7 hPa WNW 9.3 km/h 9.3 km/h 94 % 0.0 mm 142.0 W/m2 CLR
10:45 6.1 °C 5.2 °C 1029.7 hPa Calm     94 % 0.0 mm 141.0 W/m2 CLR
10:50 6.1 °C 5.2 °C 1030.0 hPa Calm     94 % 0.0 mm 114.0 W/m2 CLR
10:55 6.2 °C 5.3 °C 1030.0 hPa Calm     94 % 0.0 mm 132.0 W/m2 CLR
11:00 6.2 °C 5.3 °C 1030.0 hPa Calm     94 % 0.0 mm 109.0 W/m2 CLR
11:05 6.2 °C 5.3 °C 1030.0 hPa Calm     94 % 0.0 mm 93.0 W/m2 CLR
11:10 6.3 °C 5.4 °C 1030.0 hPa Calm     94 % 0.0 mm 105.0 W/m2 CLR
11:15 6.3 °C 5.4 °C 1030.0 hPa Calm     94 % 0.0 mm 104.0 W/m2 CLR
11:20 6.3 °C 5.4 °C 1030.0 hPa Calm     94 % 0.0 mm 95.0 W/m2 CLR
11:25 6.3 °C 5.4 °C 1030.0 hPa WNW 5.6 km/h 5.6 km/h 94 % 0.0 mm 107.0 W/m2 CLR
11:30 6.3 °C 5.4 °C 1030.0 hPa Calm     94 % 0.0 mm 91.0 W/m2 CLR
11:35 6.4 °C 5.5 °C 1030.0 hPa Calm     94 % 0.0 mm 95.0 W/m2 CLR
11:41 6.4 °C 5.5 °C 1030.0 hPa Calm     94 % 0.0 mm 107.0 W/m2 CLR
11:46 6.4 °C 5.5 °C 1030.0 hPa Calm     94 % 0.0 mm 120.0 W/m2 CLR
11:51 6.4 °C 5.5 °C 1030.0 hPa Calm     94 % 0.0 mm 113.0 W/m2 CLR
11:56 6.4 °C 5.5 °C 1030.0 hPa Calm     94 % 0.0 mm 93.0 W/m2 CLR
12:01 6.4 °C 5.6 °C 1030.0 hPa Calm     94 % 0.0 mm 84.0 W/m2 CLR
12:06 6.5 °C 5.6 °C 1030.0 hPa Calm     94 % 0.0 mm 90.0 W/m2 CLR
12:11 6.5 °C 5.6 °C 1030.0 hPa WNW 7.4 km/h 7.4 km/h 94 % 0.0 mm 105.0 W/m2 CLR
12:16 6.5 °C 5.6 °C 1030.0 hPa Calm     94 % 0.0 mm 104.0 W/m2 CLR
12:21 6.5 °C 5.6 °C 1030.0 hPa Calm     94 % 0.0 mm 97.0 W/m2 CLR
12:26 6.6 °C 5.7 °C 1030.0 hPa Calm     94 % 0.0 mm 88.0 W/m2 CLR
12:31 6.6 °C 5.7 °C 1030.0 hPa Calm     94 % 0.0 mm 93.0 W/m2 CLR
12:36 6.6 °C 5.7 °C 1030.0 hPa Calm     94 % 0.0 mm 77.0 W/m2 CLR
12:41 6.6 °C 5.7 °C 1030.0 hPa Calm     94 % 0.0 mm 77.0 W/m2 CLR
12:46 6.6 °C 5.7 °C 1030.0 hPa Calm     94 % 0.0 mm 90.0 W/m2 FEW
12:51 6.7 °C 5.8 °C 1029.7 hPa Calm     94 % 0.0 mm 95.0 W/m2 CLR
12:56 6.7 °C 5.8 °C 1029.7 hPa Calm     94 % 0.0 mm 95.0 W/m2 CLR
13:01 6.7 °C 5.8 °C 1029.7 hPa WSW 8.0 km/h 8.0 km/h 94 % 0.0 mm 102.0 W/m2 CLR
13:06 6.7 °C 5.8 °C 1029.7 hPa Calm     94 % 0.0 mm 105.0 W/m2 CLR
13:11 6.8 °C 5.9 °C 1029.7 hPa Calm     94 % 0.0 mm 107.0 W/m2 CLR
13:16 6.8 °C 5.9 °C 1029.7 hPa Calm     94 % 0.0 mm 102.0 W/m2 CLR
13:21 6.9 °C 6.0 °C 1029.3 hPa Calm     94 % 0.0 mm 114.0 W/m2 CLR
13:26 6.9 °C 6.0 °C 1029.3 hPa WNW 4.8 km/h 4.8 km/h 94 % 0.0 mm 128.0 W/m2 CLR
13:31 7.0 °C 6.1 °C 1029.3 hPa Calm     94 % 0.0 mm 130.0 W/m2 CLR
13:36 7.1 °C 6.2 °C 1029.3 hPa Calm     94 % 0.0 mm 148.0 W/m2 CLR
13:41 7.1 °C 6.2 °C 1029.0 hPa Calm     94 % 0.0 mm 148.0 W/m2 CLR
13:46 7.2 °C 6.3 °C 1029.0 hPa Calm     94 % 0.0 mm 167.0 W/m2 CLR
13:51 7.2 °C 6.3 °C 1029.0 hPa Calm     94 % 0.0 mm 183.0 W/m2 CLR
13:56 7.4 °C 6.5 °C 1029.0 hPa Calm     94 % 0.0 mm 218.0 W/m2 CLR
14:01 7.5 °C 6.6 °C 1029.0 hPa Calm     94 % 0.0 mm 185.0 W/m2 CLR
14:06 7.5 °C 6.6 °C 1029.0 hPa West 5.6 km/h 5.6 km/h 94 % 0.0 mm 162.0 W/m2 CLR
14:11 7.6 °C 6.7 °C 1028.7 hPa Calm     94 % 0.0 mm 230.0 W/m2 CLR
14:16 7.6 °C 6.7 °C 1028.7 hPa Calm     94 % 0.0 mm 213.0 W/m2 CLR
14:21 7.8 °C 6.9 °C 1028.7 hPa Calm     94 % 0.0 mm 185.0 W/m2 CLR
14:26 7.9 °C 7.0 °C 1028.7 hPa Calm     94 % 0.0 mm 172.0 W/m2 CLR
14:31 8.0 °C 7.1 °C 1028.7 hPa Calm     94 % 0.0 mm 167.0 W/m2 CLR
14:36 8.1 °C 7.2 °C 1028.7 hPa Calm     94 % 0.0 mm 149.0 W/m2 CLR
14:41 8.1 °C 7.2 °C 1028.7 hPa Calm     94 % 0.0 mm 200.0 W/m2 CLR
14:46 8.3 °C 7.2 °C 1028.3 hPa Calm     93 % 0.0 mm 236.0 W/m2 CLR
14:51 8.4 °C 7.3 °C 1028.3 hPa SSW 7.4 km/h 7.4 km/h 93 % 0.0 mm 248.0 W/m2 CLR
14:56 8.6 °C 7.5 °C 1028.3 hPa SW 5.6 km/h 5.6 km/h 93 % 0.0 mm 271.0 W/m2 CLR
15:01 8.7 °C 7.5 °C 1028.0 hPa Calm     92 % 0.0 mm 311.0 W/m2 CLR
15:06 8.9 °C 7.7 °C 1028.0 hPa Calm     92 % 0.0 mm 348.0 W/m2 CLR
15:11 9.3 °C 7.9 °C 1028.0 hPa WSW 5.6 km/h   91 % 0.0 mm 364.0 W/m2 CLR
15:16 9.8 °C 8.2 °C 1028.0 hPa West 5.6 km/h 5.6 km/h 90 % 0.0 mm 506.0 W/m2 CLR
15:21 10.1 °C 8.3 °C 1027.7 hPa Calm     89 % 0.0 mm 469.0 W/m2 CLR
15:26 10.4 °C 8.3 °C 1027.7 hPa Calm     87 % 0.0 mm 450.0 W/m2 CLR
15:31 10.6 °C 8.3 °C 1027.7 hPa Calm     86 % 0.0 mm 450.0 W/m2 CLR
15:36 10.9 °C 8.4 °C 1027.7 hPa Calm     85 % 0.0 mm 434.0 W/m2 CLR
15:41 11.1 °C 8.1 °C 1027.7 hPa Calm     82 % 0.0 mm 429.0 W/m2 CLR
15:46 11.2 °C 8.1 °C 1027.3 hPa Calm     81 % 0.0 mm 411.0 W/m2 CLR
15:51 11.3 °C 8.0 °C 1027.3 hPa Calm     80 % 0.0 mm 408.0 W/m2 CLR
15:56 11.3 °C 7.8 °C 1027.3 hPa Calm     79 % 0.0 mm 394.0 W/m2 CLR
16:01 11.3 °C 7.8 °C 1027.3 hPa Calm     79 % 0.0 mm 381.0 W/m2 CLR
16:06 11.2 °C 7.7 °C 1027.3 hPa Calm     79 % 0.0 mm 362.0 W/m2 CLR
16:11 11.4 °C 7.9 °C 1027.3 hPa Calm     79 % 0.0 mm 353.0 W/m2 CLR
16:16 11.7 °C 7.8 °C 1027.0 hPa Calm     77 % 0.0 mm 341.0 W/m2 CLR
16:21 11.8 °C 7.9 °C 1027.0 hPa Calm     77 % 0.0 mm 329.0 W/m2 CLR
16:26 11.9 °C 7.8 °C 1027.0 hPa Calm     76 % 0.0 mm 309.0 W/m2 CLR
16:31 11.9 °C 7.8 °C 1027.0 hPa Calm     76 % 0.0 mm 292.0 W/m2 CLR
16:36 12.0 °C 7.7 °C 1027.0 hPa Calm     75 % 0.0 mm 81.0 W/m2 CLR
16:41 11.8 °C 7.5 °C 1027.0 hPa Calm     75 % 0.0 mm 91.0 W/m2 CLR
16:46 11.6 °C 7.5 °C 1027.0 hPa Calm     76 % 0.0 mm 72.0 W/m2 FEW
16:51 11.6 °C 7.4 °C 1027.0 hPa NE 1.6 km/h 1.6 km/h 76 % 0.0 mm 77.0 W/m2 FEW
16:56 11.6 °C 7.7 °C 1027.0 hPa Calm     77 % 0.0 mm 232.0 W/m2 FEW
17:01 11.7 °C 7.8 °C 1027.0 hPa Calm     77 % 0.0 mm 220.0 W/m2 CLR
17:06 11.7 °C 7.8 °C 1027.0 hPa East 3.2 km/h 3.2 km/h 77 % 0.0 mm 199.0 W/m2 CLR
17:11 11.7 °C 8.2 °C 1027.0 hPa Calm   0.3 km/h 79 % 0.0 mm 176.0 W/m2 CLR
17:16 11.7 °C 7.8 °C 1027.0 hPa Calm     77 % 0.0 mm 162.0 W/m2 CLR
17:21 11.7 °C 7.9 °C 1027.0 hPa Calm     78 % 0.0 mm 146.0 W/m2 CLR
17:26 11.7 °C 7.9 °C 1027.0 hPa Calm     78 % 0.0 mm 134.0 W/m2 CLR
17:31 11.7 °C 7.9 °C 1027.0 hPa Calm     78 % 0.0 mm 118.0 W/m2 CLR
17:36 11.6 °C 7.9 °C 1027.0 hPa Calm     78 % 0.0 mm 105.0 W/m2 CLR
17:41 11.6 °C 8.1 °C 1027.0 hPa Calm     79 % 0.0 mm 91.0 W/m2 CLR
17:46 11.4 °C 7.9 °C 1027.0 hPa Calm     79 % 0.0 mm 79.0 W/m2 FEW
17:51 11.3 °C 7.9 °C 1027.0 hPa Calm     80 % 0.0 mm 62.0 W/m2 SCT
17:56 11.2 °C 7.8 °C 1027.0 hPa Calm     80 % 0.0 mm 53.0 W/m2 SCT
18:01 11.1 °C 7.7 °C 1027.3 hPa Calm     80 % 0.0 mm 42.0 W/m2 BKN
18:06 10.9 °C 7.8 °C 1027.3 hPa Calm     81 % 0.0 mm 33.0 W/m2 BKN
18:12 10.8 °C 7.7 °C 1027.3 hPa Calm     81 % 0.0 mm 26.0 W/m2 BKN
18:17 10.7 °C 7.6 °C 1027.3 hPa Calm     81 % 0.0 mm 19.0 W/m2 BKN
18:22 10.6 °C 7.6 °C 1027.3 hPa Calm     82 % 0.0 mm 16.0 W/m2 BKN
18:27 10.4 °C 7.6 °C 1027.3 hPa Calm     83 % 0.0 mm 12.0 W/m2 BKN
18:32 10.1 °C 7.3 °C 1027.3 hPa Calm     83 % 0.0 mm 9.0 W/m2 BKN
18:37 10.0 °C 7.4 °C 1027.3 hPa Calm     84 % 0.0 mm 5.0 W/m2 OVC
18:42 9.8 °C 7.4 °C 1027.3 hPa Calm     85 % 0.0 mm 0.0 W/m2 OVC
18:47 9.8 °C 7.4 °C 1027.3 hPa Calm     85 % 0.0 mm 0.0 W/m2 OVC
18:52 9.8 °C 7.4 °C 1027.3 hPa Calm     85 % 0.0 mm 0.0 W/m2 CLR
18:57 9.7 °C 7.3 °C 1027.7 hPa Calm     85 % 0.0 mm 0.0 W/m2 CLR
19:02 9.6 °C 7.2 °C 1027.7 hPa Calm     85 % 0.0 mm 0.0 W/m2 CLR
19:07 9.3 °C 6.9 °C 1027.7 hPa Calm     85 % 0.0 mm 0.0 W/m2 CLR
19:12 9.1 °C 6.7 °C 1027.7 hPa Calm     85 % 0.0 mm 0.0 W/m2 CLR
19:17 8.7 °C 6.3 °C 1027.7 hPa Calm     85 % 0.0 mm 0.0 W/m2 CLR
19:22 8.4 °C 6.2 °C 1028.0 hPa Calm     86 % 0.0 mm 0.0 W/m2 CLR
19:27 8.2 °C 6.2 °C 1028.0 hPa Calm     87 % 0.0 mm 0.0 W/m2 CLR
19:32 7.9 °C 5.7 °C 1028.3 hPa Calm     86 % 0.0 mm 0.0 W/m2 CLR
19:37 7.6 °C 5.6 °C 1028.3 hPa Calm     87 % 0.0 mm 0.0 W/m2 CLR
19:42 7.3 °C 5.4 °C 1028.3 hPa Calm     88 % 0.0 mm 0.0 W/m2 CLR
19:47 7.1 °C 5.2 °C 1028.3 hPa Calm     88 % 0.0 mm 0.0 W/m2 CLR
19:52 6.9 °C 5.4 °C 1028.3 hPa Calm     90 % 0.0 mm 0.0 W/m2 CLR
19:57 6.8 °C 5.3 °C 1028.3 hPa Calm     90 % 0.0 mm 0.0 W/m2 CLR
20:02 6.7 °C 5.2 °C 1028.3 hPa Calm     90 % 0.0 mm 0.0 W/m2 CLR
20:07 6.4 °C 4.9 °C 1028.7 hPa Calm     90 % 0.0 mm 0.0 W/m2 CLR
20:12 6.3 °C 4.8 °C 1028.3 hPa Calm     90 % 0.0 mm 0.0 W/m2 CLR
20:17 6.1 °C 4.6 °C 1028.3 hPa Calm     90 % 0.0 mm 0.0 W/m2 CLR
20:22 5.9 °C 4.4 °C 1028.3 hPa Calm     90 % 0.0 mm 0.0 W/m2 CLR
20:27 5.8 °C 4.5 °C 1028.3 hPa Calm     91 % 0.0 mm 0.0 W/m2 CLR
20:32 5.7 °C 4.3 °C 1028.3 hPa Calm     91 % 0.0 mm 0.0 W/m2 CLR
20:37 5.6 °C 4.3 °C 1028.3 hPa Calm     91 % 0.0 mm 0.0 W/m2 CLR
20:42 5.4 °C 4.1 °C 1028.3 hPa Calm     91 % 0.0 mm 0.0 W/m2 CLR
20:47 5.3 °C 4.0 °C 1028.3 hPa Calm     91 % 0.0 mm 0.0 W/m2 CLR
20:52 5.3 °C 3.9 °C 1028.3 hPa Calm     91 % 0.0 mm 0.0 W/m2 CLR
20:57 5.2 °C 4.1 °C 1028.3 hPa Calm     92 % 0.0 mm 0.0 W/m2 CLR
21:02 5.1 °C 3.9 °C 1028.3 hPa Calm     92 % 0.0 mm 0.0 W/m2 CLR
21:07 5.0 °C 3.7 °C 1028.3 hPa Calm     91 % 0.0 mm 0.0 W/m2 CLR
21:12 4.9 °C 3.8 °C 1028.3 hPa Calm     92 % 0.0 mm 0.0 W/m2 CLR
21:17 4.8 °C 3.7 °C 1028.7 hPa Calm     92 % 0.0 mm 0.0 W/m2 CLR
21:22 4.7 °C 3.6 °C 1028.7 hPa Calm     92 % 0.0 mm 0.0 W/m2 CLR
21:27 4.7 °C 3.5 °C 1028.7 hPa Calm     92 % 0.0 mm 0.0 W/m2 CLR
21:32 4.6 °C 3.4 °C 1028.3 hPa Calm     92 % 0.0 mm 0.0 W/m2 CLR
21:37 4.5 °C 3.3 °C 1028.3 hPa Calm     92 % 0.0 mm 0.0 W/m2 CLR
21:42 4.5 °C 3.3 °C 1028.7 hPa Calm     92 % 0.0 mm 0.0 W/m2 CLR
21:47 4.4 °C 3.3 °C 1028.7 hPa Calm     92 % 0.0 mm 0.0 W/m2 CLR
21:52 4.4 °C 3.2 °C 1028.7 hPa Calm     92 % 0.0 mm 0.0 W/m2 CLR
21:57 4.4 °C 3.2 °C 1028.7 hPa Calm     92 % 0.0 mm 0.0 W/m2 CLR
22:02 4.6 °C 3.5 °C 1028.7 hPa Calm     93 % 0.0 mm 0.0 W/m2 CLR
22:07 4.6 °C 3.6 °C 1028.7 hPa Calm     93 % 0.0 mm 0.0 W/m2 CLR
22:12 4.5 °C 3.3 °C 1028.7 hPa SSW 5.6 km/h 5.6 km/h 92 % 0.0 mm 0.0 W/m2 CLR
22:17 4.3 °C 3.2 °C 1028.7 hPa Calm     92 % 0.0 mm 0.0 W/m2 CLR
22:23 4.2 °C 3.1 °C 1028.7 hPa Calm     92 % 0.0 mm 0.0 W/m2 CLR
22:28 4.2 °C 3.0 °C 1028.7 hPa Calm     92 % 0.0 mm 0.0 W/m2 CLR
22:33 4.2 °C 3.2 °C 1028.7 hPa Calm     93 % 0.0 mm 0.0 W/m2 CLR
22:38 4.2 °C 3.2 °C 1028.7 hPa Calm     93 % 0.0 mm 0.0 W/m2 CLR
22:43 4.0 °C 2.8 °C 1028.7 hPa Calm     92 % 0.0 mm 0.0 W/m2 CLR
22:48 3.9 °C 2.8 °C 1028.7 hPa SW 5.6 km/h   92 % 0.0 mm 0.0 W/m2 CLR
22:53 3.8 °C 2.7 °C 1028.7 hPa Calm     92 % 0.0 mm 0.0 W/m2 CLR
22:59 4.0 °C 2.9 °C 1029.0 hPa Calm     93 % 0.0 mm 0.0 W/m2 CLR
23:04 3.9 °C 2.8 °C 1028.7 hPa Calm     93 % 0.0 mm 0.0 W/m2 CLR
23:09 3.9 °C 2.8 °C 1029.0 hPa Calm     93 % 0.0 mm 0.0 W/m2 CLR
23:14 3.8 °C 2.8 °C 1029.0 hPa Calm     93 % 0.0 mm 0.0 W/m2 CLR
23:19 3.8 °C 2.7 °C 1028.7 hPa Calm     93 % 0.0 mm 0.0 W/m2 CLR
23:24 3.8 °C 2.7 °C 1028.7 hPa Calm     93 % 0.0 mm 0.0 W/m2 CLR
23:29 3.5 °C 2.3 °C 1029.0 hPa Calm     92 % 0.0 mm 0.0 W/m2 CLR
23:34 3.3 °C 2.3 °C 1029.0 hPa Calm     93 % 0.0 mm 0.0 W/m2 CLR
23:39 3.2 °C 2.2 °C 1029.0 hPa Calm     93 % 0.0 mm 0.0 W/m2 CLR
23:44 3.1 °C 2.1 °C 1029.0 hPa Calm     93 % 0.0 mm 0.0 W/m2 CLR
23:49 3.1 °C 2.1 °C 1029.0 hPa Calm     93 % 0.0 mm 0.0 W/m2 CLR
23:54 2.9 °C 1.9 °C 1029.0 hPa Calm     93 % 0.0 mm 0.0 W/m2 CLR
23:59 2.8 °C 1.8 °C 1029.0 hPa Calm     93 % 0.0 mm 0.0 W/m2 CLR
Lo Temps de Massalio
Compliments of Weather Underground - 1.25 mb